createdAt,value
2019-04-25T00:00:46.893Z,10.70
2019-04-25T00:03:18.111Z,10.60
2019-04-25T00:05:48.543Z,10.60
2019-04-25T00:08:18.861Z,10.60
2019-04-25T00:11:01.714Z,10.50
2019-04-25T00:13:32.983Z,10.50
2019-04-25T00:16:03.425Z,10.40
2019-04-25T00:18:33.633Z,10.40
2019-04-25T00:21:12.226Z,10.30
2019-04-25T00:23:45.309Z,10.30
2019-04-25T00:26:31.268Z,10.30
2019-04-25T00:29:02.020Z,10.30
2019-04-25T00:31:33.641Z,10.30
2019-04-25T00:34:04.846Z,10.40
2019-04-25T00:36:35.270Z,10.30
2019-04-25T00:39:07.177Z,10.20
2019-04-25T00:41:39.094Z,10.20
2019-04-25T00:44:09.290Z,10.20
2019-04-25T00:46:39.559Z,10.20
2019-04-25T00:49:09.833Z,10.10
2019-04-25T00:51:41.835Z,10.10
2019-04-25T00:54:12.185Z,10.10
2019-04-25T00:56:45.657Z,10.00
2019-04-25T00:59:22.005Z,10.10
2019-04-25T01:02:14.524Z,10.00
2019-04-25T01:04:45.176Z,10.00
2019-04-25T01:07:16.408Z,10.00
2019-04-25T01:09:46.816Z,10.00
2019-04-25T01:12:17.958Z,9.90
2019-04-25T01:14:48.417Z,9.90
2019-04-25T01:17:19.043Z,9.90
2019-04-25T01:19:49.259Z,9.80
2019-04-25T01:22:19.802Z,9.80
2019-04-25T01:24:50.417Z,9.80
2019-04-25T01:27:20.616Z,9.80
2019-04-25T01:29:50.884Z,9.70
2019-04-25T01:32:28.911Z,9.70
2019-04-25T01:35:09.649Z,9.60
2019-04-25T01:37:47.479Z,9.60
2019-04-25T01:40:29.427Z,9.50
2019-04-25T01:43:30.793Z,9.50
2019-04-25T01:46:03.317Z,9.40
2019-04-25T01:48:33.740Z,9.40
2019-04-25T01:51:04.154Z,9.30
2019-04-25T01:53:35.640Z,9.30
2019-04-25T01:56:07.850Z,9.30
2019-04-25T01:58:37.918Z,9.20
2019-04-25T02:01:08.249Z,9.20
2019-04-25T02:03:38.526Z,9.20
2019-04-25T02:06:10.109Z,9.20
2019-04-25T02:08:41.440Z,9.20
2019-04-25T02:11:19.811Z,9.20
2019-04-25T02:13:51.283Z,9.20
2019-04-25T02:16:21.795Z,9.20
2019-04-25T02:18:54.214Z,9.10
2019-04-25T02:21:24.090Z,9.10
2019-04-25T02:23:55.489Z,9.10
2019-04-25T02:26:26.573Z,9.10
2019-04-25T02:28:59.054Z,9.00
2019-04-25T02:31:29.387Z,9.00
2019-04-25T02:34:01.177Z,9.00
2019-04-25T02:36:34.451Z,9.00
2019-04-25T02:39:09.027Z,8.90
2019-04-25T02:41:39.206Z,8.90
2019-04-25T02:44:10.228Z,8.90
2019-04-25T02:46:58.433Z,8.80
2019-04-25T02:49:46.088Z,8.80
2019-04-25T02:52:24.702Z,8.80
2019-04-25T02:54:56.961Z,8.80
2019-04-25T02:57:27.303Z,8.80
2019-04-25T02:59:58.522Z,8.80
2019-04-25T03:02:29.089Z,8.90
2019-04-25T03:04:59.614Z,8.90
2019-04-25T03:07:31.199Z,8.90
2019-04-25T03:10:01.988Z,8.90
2019-04-25T03:12:35.985Z,8.80
2019-04-25T03:15:08.346Z,8.90
2019-04-25T03:17:38.628Z,8.80
2019-04-25T03:20:26.889Z,8.80
2019-04-25T03:23:00.061Z,8.80
2019-04-25T03:25:30.842Z,8.80
2019-04-25T03:28:01.238Z,8.80
2019-04-25T03:30:31.623Z,8.80
2019-04-25T03:33:04.796Z,8.80
2019-04-25T03:35:33.815Z,8.70
2019-04-25T03:38:05.141Z,8.80
2019-04-25T03:40:35.691Z,8.70
2019-04-25T03:43:08.917Z,8.70
2019-04-25T03:45:39.388Z,8.60
2019-04-25T03:48:09.634Z,8.60
2019-04-25T03:50:39.859Z,8.60
2019-04-25T03:53:10.053Z,8.60
2019-04-25T03:55:40.306Z,8.60
2019-04-25T03:58:11.505Z,8.60
2019-04-25T04:00:44.843Z,8.70
2019-04-25T04:03:15.315Z,8.70
2019-04-25T04:05:45.642Z,8.70
2019-04-25T04:08:15.972Z,8.70
2019-04-25T04:10:46.419Z,8.60
2019-04-25T04:13:16.769Z,8.60
2019-04-25T04:15:47.405Z,8.50
2019-04-25T04:18:30.346Z,8.60
2019-04-25T04:21:19.880Z,8.60
2019-04-25T04:24:08.198Z,8.70
2019-04-25T04:26:39.247Z,8.60
2019-04-25T04:29:15.168Z,8.60
2019-04-25T04:31:45.633Z,8.50
2019-04-25T04:34:16.937Z,8.40
2019-04-25T04:36:47.541Z,8.40
2019-04-25T04:39:18.773Z,8.40
2019-04-25T04:41:49.514Z,8.30
2019-04-25T04:44:19.796Z,8.30
2019-04-25T04:46:50.997Z,8.30
2019-04-25T04:49:21.355Z,8.40
2019-04-25T04:51:51.640Z,8.50
2019-04-25T04:54:23.151Z,8.50
2019-04-25T04:56:53.705Z,8.50
2019-04-25T04:59:24.884Z,8.60
2019-04-25T05:02:24.413Z,8.70
2019-04-25T05:05:03.659Z,8.70
2019-04-25T05:07:53.913Z,8.80
2019-04-25T05:10:24.652Z,8.90
2019-04-25T05:12:55.161Z,9.10
2019-04-25T05:15:25.420Z,9.10
2019-04-25T05:17:57.289Z,9.20
2019-04-25T05:20:27.504Z,9.40
2019-04-25T05:22:57.771Z,9.50
2019-04-25T05:25:28.067Z,9.50
2019-04-25T05:28:02.842Z,9.60
2019-04-25T05:30:36.493Z,9.60
2019-04-25T05:33:06.869Z,9.60
2019-04-25T05:35:37.216Z,9.70
2019-04-25T05:38:07.482Z,9.80
2019-04-25T05:40:51.178Z,9.80
2019-04-25T05:43:21.484Z,10.00
2019-04-25T05:45:51.753Z,10.00
2019-04-25T05:48:22.025Z,10.10
2019-04-25T05:50:53.711Z,10.20
2019-04-25T05:53:25.373Z,10.30
2019-04-25T05:55:56.289Z,10.20
2019-04-25T05:58:27.043Z,10.20
2019-04-25T06:00:57.614Z,10.10
2019-04-25T06:03:27.971Z,10.10
2019-04-25T06:05:58.229Z,10.20
2019-04-25T06:08:30.253Z,10.20
2019-04-25T06:11:09.509Z,10.30
2019-04-25T06:13:48.008Z,10.40
2019-04-25T06:16:25.606Z,10.60
2019-04-25T06:19:19.601Z,10.70
2019-04-25T06:21:50.104Z,10.80
2019-04-25T06:24:35.389Z,11.00
2019-04-25T06:27:25.886Z,11.10
2019-04-25T06:30:01.102Z,11.20
2019-04-25T06:32:31.638Z,11.50
2019-04-25T06:35:02.004Z,11.70
2019-04-25T06:37:33.977Z,11.80
2019-04-25T06:40:05.843Z,11.90
2019-04-25T06:42:36.538Z,12.00
2019-04-25T06:45:35.706Z,12.10
2019-04-25T06:48:18.360Z,12.20
2019-04-25T06:50:48.832Z,12.20
2019-04-25T06:53:19.282Z,12.30
2019-04-25T06:55:49.538Z,12.30
2019-04-25T06:58:19.930Z,12.50
2019-04-25T07:00:58.727Z,12.60
2019-04-25T07:03:22.941Z,12.70
2019-04-25T07:05:54.257Z,12.80
2019-04-25T07:08:25.808Z,12.90
2019-04-25T07:10:56.657Z,13.00
2019-04-25T07:13:27.081Z,13.20
2019-04-25T07:15:57.453Z,13.30
2019-04-25T07:18:30.531Z,13.50
2019-04-25T07:20:59.731Z,13.50
2019-04-25T07:23:30.180Z,13.60
2019-04-25T07:26:07.527Z,13.70
2019-04-25T07:28:49.986Z,13.80
2019-04-25T07:31:33.461Z,14.00
2019-04-25T07:34:13.318Z,14.00
2019-04-25T07:36:45.518Z,14.10
2019-04-25T07:39:17.946Z,14.20
2019-04-25T07:41:48.339Z,14.30
2019-04-25T07:44:28.469Z,14.40
2019-04-25T07:46:52.186Z,14.50
2019-04-25T07:49:23.450Z,14.60
2019-04-25T07:51:55.271Z,14.60
2019-04-25T07:54:27.413Z,14.60
2019-04-25T07:56:57.569Z,14.70
2019-04-25T07:59:29.069Z,14.70
2019-04-25T08:02:03.287Z,14.80
2019-04-25T08:04:35.747Z,15.00
2019-04-25T08:07:05.813Z,15.10
2019-04-25T08:09:37.056Z,15.20
2019-04-25T08:12:08.397Z,15.30
2019-04-25T08:14:49.652Z,15.30
2019-04-25T08:17:39.906Z,15.30
2019-04-25T08:20:10.723Z,15.40
2019-04-25T08:22:52.961Z,15.60
2019-04-25T08:25:14.771Z,15.70
2019-04-25T08:27:45.117Z,15.90
2019-04-25T08:30:15.950Z,16.10
2019-04-25T08:32:49.294Z,16.30
2019-04-25T08:35:20.367Z,16.40
2019-04-25T08:37:50.614Z,16.40
2019-04-25T08:40:21.557Z,16.50
2019-04-25T08:42:53.622Z,16.50
2019-04-25T08:45:24.515Z,16.50
2019-04-25T08:47:57.454Z,16.60
2019-04-25T08:50:45.330Z,16.60
2019-04-25T08:53:15.570Z,16.60
2019-04-25T08:55:50.935Z,16.70
2019-04-25T08:58:41.218Z,16.70
2019-04-25T09:01:29.155Z,16.80
2019-04-25T09:04:27.701Z,16.90
2019-04-25T09:06:58.017Z,17.10
2019-04-25T09:09:28.503Z,17.30
2019-04-25T09:11:58.826Z,17.50
2019-04-25T09:14:29.095Z,17.40
2019-04-25T09:16:59.266Z,17.50
2019-04-25T09:19:29.579Z,17.70
2019-04-25T09:21:59.920Z,17.90
2019-04-25T09:24:30.143Z,18.00
2019-04-25T09:27:01.488Z,18.20
2019-04-25T09:29:34.381Z,18.40
2019-04-25T09:32:07.597Z,18.70
2019-04-25T09:34:41.492Z,18.90
2019-04-25T09:37:11.744Z,19.00
2019-04-25T09:40:07.243Z,19.10
2019-04-25T09:42:37.662Z,19.20
2019-04-25T09:45:43.905Z,19.40
2019-04-25T09:48:23.185Z,19.30
2019-04-25T09:51:01.169Z,19.50
2019-04-25T09:53:34.284Z,19.60
2019-04-25T09:56:11.176Z,19.60
2019-04-25T09:58:49.502Z,19.60
2019-04-25T10:01:20.801Z,19.70
2019-04-25T10:03:51.173Z,20.00
2019-04-25T10:06:23.291Z,20.20
2019-04-25T10:08:54.329Z,20.50
2019-04-25T10:11:24.811Z,20.90
2019-04-25T10:14:04.807Z,21.10
2019-04-25T10:16:35.172Z,21.10
2019-04-25T10:19:05.583Z,21.00
2019-04-25T10:21:35.936Z,21.10
2019-04-25T10:24:06.771Z,21.20
2019-04-25T10:26:37.656Z,21.20
2019-04-25T10:29:09.153Z,21.10
2019-04-25T10:31:39.862Z,21.20
2019-04-25T10:34:13.963Z,21.60
2019-04-25T10:36:46.823Z,21.80
2019-04-25T10:39:17.333Z,22.10
2019-04-25T10:41:48.303Z,22.20
2019-04-25T10:44:18.837Z,22.30
2019-04-25T10:46:50.182Z,22.30
2019-04-25T10:49:20.777Z,22.20
2019-04-25T10:51:51.015Z,22.00
2019-04-25T10:54:23.784Z,22.00
2019-04-25T10:56:54.132Z,22.00
2019-04-25T10:59:24.394Z,22.10
2019-04-25T11:01:55.215Z,22.20
2019-04-25T11:04:40.955Z,22.20
2019-04-25T11:07:13.558Z,22.30
2019-04-25T11:09:45.574Z,22.10
2019-04-25T11:12:18.312Z,22.10
2019-04-25T11:14:48.802Z,22.10
2019-04-25T11:17:19.373Z,22.10
2019-04-25T11:19:49.614Z,22.10
2019-04-25T11:22:21.214Z,22.10
2019-04-25T11:24:51.558Z,22.10
2019-04-25T11:27:23.753Z,22.20
2019-04-25T11:30:08.255Z,22.20
2019-04-25T11:32:28.279Z,22.40
2019-04-25T11:34:59.761Z,22.50
2019-04-25T11:37:34.180Z,22.70
2019-04-25T11:40:23.404Z,22.80
2019-04-25T11:42:54.613Z,22.80
2019-04-25T11:45:25.180Z,22.80
2019-04-25T11:47:55.396Z,22.80
2019-04-25T11:50:25.773Z,22.90
2019-04-25T11:52:56.447Z,23.10
2019-04-25T11:55:26.857Z,23.40
2019-04-25T11:57:57.255Z,23.70
2019-04-25T12:00:29.721Z,23.90
2019-04-25T12:03:00.035Z,24.20
2019-04-25T12:05:30.412Z,24.20
2019-04-25T12:08:00.906Z,24.40
2019-04-25T12:10:32.531Z,24.50
2019-04-25T12:13:03.048Z,24.50
2019-04-25T12:15:33.600Z,24.50
2019-04-25T12:18:04.670Z,24.50
2019-04-25T12:20:36.230Z,24.40
2019-04-25T12:23:10.382Z,24.40
2019-04-25T12:25:38.472Z,24.60
2019-04-25T12:28:10.117Z,24.80
2019-04-25T12:30:40.578Z,24.80
2019-04-25T12:33:20.340Z,24.80
2019-04-25T12:35:43.678Z,24.80
2019-04-25T12:38:14.295Z,24.90
2019-04-25T12:40:46.858Z,25.20
2019-04-25T12:43:16.884Z,25.50
2019-04-25T12:45:56.807Z,25.70
2019-04-25T12:48:27.200Z,25.90
2019-04-25T12:50:57.799Z,25.80
2019-04-25T12:53:28.116Z,25.30
2019-04-25T12:56:01.856Z,25.20
2019-04-25T12:58:33.418Z,25.50
2019-04-25T13:01:05.137Z,26.10
2019-04-25T13:03:35.445Z,26.30
2019-04-25T13:06:05.839Z,26.00
2019-04-25T13:08:38.626Z,26.30
2019-04-25T13:11:10.537Z,26.70
2019-04-25T13:13:43.516Z,27.00
2019-04-25T13:16:14.249Z,27.20
2019-04-25T13:18:44.667Z,27.70
2019-04-25T13:21:15.160Z,28.50
2019-04-25T13:23:45.863Z,29.30
2019-04-25T13:26:18.038Z,28.80
2019-04-25T13:29:01.133Z,28.10
2019-04-25T13:32:08.732Z,27.80
2019-04-25T13:34:44.849Z,27.50
2019-04-25T13:37:16.527Z,27.10
2019-04-25T13:39:48.103Z,27.00
2019-04-25T13:42:19.631Z,27.10
2019-04-25T13:44:51.354Z,27.30
2019-04-25T13:47:22.178Z,27.50
2019-04-25T13:49:55.110Z,27.60
2019-04-25T13:52:25.638Z,27.60
2019-04-25T13:54:58.380Z,27.70
2019-04-25T13:57:28.829Z,27.70
2019-04-25T13:59:59.232Z,27.50
2019-04-25T14:02:31.450Z,27.40
2019-04-25T14:05:01.868Z,27.20
2019-04-25T14:07:33.207Z,26.90
2019-04-25T14:10:03.554Z,26.70
2019-04-25T14:12:35.756Z,26.50
2019-04-25T14:15:09.331Z,26.20
2019-04-25T14:17:57.502Z,26.20
2019-04-25T14:20:34.219Z,26.20
2019-04-25T14:23:06.092Z,26.30
2019-04-25T14:25:36.979Z,26.60
2019-04-25T14:28:09.699Z,26.60
2019-04-25T14:30:40.467Z,26.30
2019-04-25T14:33:13.455Z,26.30
2019-04-25T14:35:44.099Z,26.30
2019-04-25T14:38:14.433Z,26.30
2019-04-25T14:40:45.058Z,26.10
2019-04-25T14:43:15.450Z,26.00
2019-04-25T14:45:45.759Z,25.90
2019-04-25T14:48:16.271Z,25.90
2019-04-25T14:50:46.503Z,25.90
2019-04-25T14:53:16.921Z,26.00
2019-04-25T14:56:12.338Z,26.20
2019-04-25T14:58:44.254Z,26.50
2019-04-25T15:01:16.026Z,26.80
2019-04-25T15:03:47.613Z,26.90
2019-04-25T15:06:17.982Z,26.90
2019-04-25T15:08:49.343Z,26.90
2019-04-25T15:11:19.771Z,26.90
2019-04-25T15:13:52.666Z,27.00
2019-04-25T15:16:23.538Z,27.30
2019-04-25T15:18:54.335Z,27.40
2019-04-25T15:21:25.189Z,27.30
2019-04-25T15:24:00.247Z,27.20
2019-04-25T15:26:28.979Z,27.00
2019-04-25T15:28:59.373Z,26.90
2019-04-25T15:31:30.206Z,26.90
2019-04-25T15:34:02.399Z,26.80
2019-04-25T15:36:48.352Z,26.70
2019-04-25T15:39:35.291Z,26.60
2019-04-25T15:42:17.570Z,26.40
2019-04-25T15:45:14.023Z,26.20
2019-04-25T15:47:45.566Z,26.10
2019-04-25T15:50:19.670Z,25.90
2019-04-25T15:52:51.666Z,25.80
2019-04-25T15:55:22.373Z,25.70
2019-04-25T15:57:52.714Z,25.60
2019-04-25T16:00:36.949Z,25.60
2019-04-25T16:03:08.273Z,25.70
2019-04-25T16:05:38.621Z,25.80
2019-04-25T16:08:09.027Z,25.70
2019-04-25T16:10:39.428Z,25.70
2019-04-25T16:13:09.876Z,25.60
2019-04-25T16:15:41.564Z,25.40
2019-04-25T16:18:12.277Z,25.30
2019-04-25T16:20:43.544Z,25.20
2019-04-25T16:23:13.977Z,25.00
2019-04-25T16:25:45.579Z,25.00
2019-04-25T16:28:15.964Z,25.00
2019-04-25T16:30:46.413Z,25.00
2019-04-25T16:33:19.027Z,24.90
2019-04-25T16:35:49.229Z,24.90
2019-04-25T16:38:19.859Z,25.00
2019-04-25T16:40:50.692Z,24.90
2019-04-25T16:43:26.151Z,24.80
2019-04-25T16:45:56.567Z,24.70
2019-04-25T16:48:26.970Z,24.60
2019-04-25T16:50:57.294Z,24.50
2019-04-25T16:53:27.689Z,24.50
2019-04-25T16:55:58.050Z,24.60
2019-04-25T16:58:28.601Z,25.00
2019-04-25T17:01:06.572Z,25.20
2019-04-25T17:03:37.799Z,25.30
2019-04-25T17:06:08.328Z,25.20
2019-04-25T17:08:38.783Z,25.10
2019-04-25T17:11:09.475Z,25.10
2019-04-25T17:13:45.735Z,25.20
2019-04-25T17:16:42.402Z,25.40
2019-04-25T17:19:18.032Z,25.70
2019-04-25T17:21:48.449Z,25.90
2019-04-25T17:24:19.165Z,25.90
2019-04-25T17:26:49.514Z,25.80
2019-04-25T17:29:20.594Z,25.60
2019-04-25T17:32:12.077Z,25.50
2019-04-25T17:34:58.747Z,25.20
2019-04-25T17:37:37.064Z,25.00
2019-04-25T17:40:12.962Z,24.10
2019-04-25T17:42:43.973Z,23.20
2019-04-25T17:45:18.827Z,22.10
2019-04-25T17:47:54.692Z,21.10
2019-04-25T17:50:21.153Z,20.60
2019-04-25T17:52:51.580Z,20.50
2019-04-25T17:55:22.384Z,20.10
2019-04-25T17:57:52.795Z,19.80
2019-04-25T18:00:28.325Z,19.60
2019-04-25T18:02:59.265Z,19.50
2019-04-25T18:05:29.748Z,19.40
2019-04-25T18:08:00.081Z,19.40
2019-04-25T18:10:31.071Z,19.10
2019-04-25T18:13:01.478Z,18.70
2019-04-25T18:15:38.021Z,18.40
2019-04-25T18:18:13.425Z,18.50
2019-04-25T18:20:44.851Z,18.20
2019-04-25T18:23:36.933Z,17.90
2019-04-25T18:26:23.565Z,17.90
2019-04-25T18:28:57.989Z,17.70
2019-04-25T18:31:28.472Z,17.50
2019-04-25T18:34:02.059Z,17.30
2019-04-25T18:36:47.638Z,17.30
2019-04-25T18:39:24.432Z,17.30
2019-04-25T18:42:09.413Z,17.30
2019-04-25T18:44:40.042Z,17.10
2019-04-25T18:47:11.783Z,16.90
2019-04-25T18:49:44.662Z,16.80
2019-04-25T18:52:33.031Z,16.90
2019-04-25T18:55:22.448Z,16.90
2019-04-25T18:57:59.411Z,16.80
2019-04-25T19:00:45.815Z,16.70
2019-04-25T19:03:35.410Z,16.70
2019-04-25T19:06:08.869Z,16.50
2019-04-25T19:08:39.630Z,16.40
2019-04-25T19:11:10.173Z,16.20
2019-04-25T19:13:41.072Z,16.20
2019-04-25T19:16:12.598Z,16.30
2019-04-25T19:18:45.391Z,16.10
2019-04-25T19:21:15.020Z,16.10
2019-04-25T19:23:46.093Z,16.20
2019-04-25T19:26:16.620Z,16.20
2019-04-25T19:28:47.069Z,16.10
2019-04-25T19:31:17.435Z,16.00
2019-04-25T19:33:47.748Z,16.10
2019-04-25T19:36:19.342Z,15.90
2019-04-25T19:38:49.831Z,15.80
2019-04-25T19:41:34.263Z,15.60
2019-04-25T19:44:10.804Z,15.60
2019-04-25T19:46:45.856Z,15.60
2019-04-25T19:49:16.375Z,15.60
2019-04-25T19:51:47.267Z,15.40
2019-04-25T19:54:17.867Z,15.30
2019-04-25T19:56:48.239Z,15.20
2019-04-25T19:59:18.601Z,15.10
2019-04-25T20:01:52.739Z,15.20
2019-04-25T20:04:41.813Z,15.20
2019-04-25T20:07:26.969Z,15.20
2019-04-25T20:10:16.378Z,15.30
2019-04-25T20:12:50.547Z,15.10
2019-04-25T20:15:20.582Z,15.00
2019-04-25T20:17:51.996Z,15.00
2019-04-25T20:20:22.599Z,15.10
2019-04-25T20:22:52.857Z,15.10
2019-04-25T20:25:23.329Z,14.90
2019-04-25T20:27:53.730Z,14.90
2019-04-25T20:30:24.148Z,15.00
2019-04-25T20:32:54.523Z,15.00
2019-04-25T20:35:25.277Z,14.80
2019-04-25T20:37:55.665Z,14.80
2019-04-25T20:40:25.905Z,14.90
2019-04-25T20:42:56.482Z,15.00
2019-04-25T20:45:26.918Z,14.90
2019-04-25T20:47:57.274Z,14.80
2019-04-25T20:50:27.571Z,14.80
2019-04-25T20:52:57.939Z,14.90
2019-04-25T20:55:29.599Z,15.00
2019-04-25T20:58:00.021Z,14.80
2019-04-25T21:00:47.120Z,14.90
2019-04-25T21:03:19.312Z,14.90
2019-04-25T21:05:53.242Z,14.90
2019-04-25T21:08:24.945Z,14.80
2019-04-25T21:10:55.828Z,14.60
2019-04-25T21:13:34.945Z,14.50
2019-04-25T21:16:24.371Z,14.40
2019-04-25T21:19:02.798Z,14.40
2019-04-25T21:21:33.215Z,14.40
2019-04-25T21:24:03.589Z,14.30
2019-04-25T21:26:33.897Z,14.20
2019-04-25T21:29:04.559Z,14.20
2019-04-25T21:31:34.943Z,14.20
2019-04-25T21:34:05.329Z,14.20
2019-04-25T21:36:36.011Z,14.00
2019-04-25T21:39:09.811Z,14.00
2019-04-25T21:42:04.057Z,13.90
2019-04-25T21:44:34.881Z,13.90
2019-04-25T21:47:05.226Z,14.00
2019-04-25T21:49:35.943Z,14.10
2019-04-25T21:52:06.271Z,14.10
2019-04-25T21:54:36.855Z,14.20
2019-04-25T21:57:07.686Z,14.20
2019-04-25T21:59:37.890Z,14.10
2019-04-25T22:02:08.774Z,14.10
2019-04-25T22:04:40.594Z,14.20
2019-04-25T22:07:11.997Z,14.20
2019-04-25T22:09:42.583Z,14.10
2019-04-25T22:12:14.886Z,14.10
2019-04-25T22:14:45.182Z,14.00
2019-04-25T22:17:16.744Z,14.00
2019-04-25T22:19:48.992Z,14.00
2019-04-25T22:22:22.109Z,13.90
2019-04-25T22:24:51.837Z,13.90
2019-04-25T22:27:28.130Z,13.90
2019-04-25T22:29:58.825Z,13.90
2019-04-25T22:32:48.017Z,14.00
2019-04-25T22:35:27.985Z,13.80
2019-04-25T22:37:58.656Z,13.70
2019-04-25T22:40:29.385Z,13.70
2019-04-25T22:43:00.447Z,13.70
2019-04-25T22:45:32.255Z,13.70
2019-04-25T22:48:03.157Z,13.60
2019-04-25T22:50:33.717Z,13.60
2019-04-25T22:53:06.063Z,13.60
2019-04-25T22:55:36.650Z,13.60
2019-04-25T22:58:07.813Z,13.60
2019-04-25T23:00:38.982Z,13.50
2019-04-25T23:03:17.599Z,13.50
2019-04-25T23:05:52.982Z,13.40
2019-04-25T23:08:24.508Z,13.30
2019-04-25T23:10:56.204Z,13.30
2019-04-25T23:13:26.514Z,13.40
2019-04-25T23:15:56.972Z,13.40
2019-04-25T23:18:28.670Z,13.40
2019-04-25T23:20:58.955Z,13.40
2019-04-25T23:23:32.277Z,13.40
2019-04-25T23:26:08.176Z,13.40
2019-04-25T23:28:40.658Z,13.30
2019-04-25T23:31:20.953Z,13.30
2019-04-25T23:33:51.302Z,13.20
2019-04-25T23:36:22.259Z,13.20
2019-04-25T23:38:52.556Z,13.10
2019-04-25T23:41:23.222Z,13.00
2019-04-25T23:43:56.035Z,13.00
2019-04-25T23:46:26.807Z,13.00
2019-04-25T23:48:57.288Z,13.00
2019-04-25T23:51:28.686Z,13.10
2019-04-25T23:53:59.434Z,13.10
2019-04-25T23:56:29.795Z,13.10
2019-04-25T23:59:00.382Z,13.00
